sensor_id;sensor_type;location;lat;lon;timestamp;P1;durP1;ratioP1;P2;durP2;ratioP2
27921;SDS011;15261;50.356;10.340;2024-01-15T00:01:33;44.13;;;24.67;;
27921;SDS011;15261;50.356;10.340;2024-01-15T00:03:59;44.90;;;23.47;;
27921;SDS011;15261;50.356;10.340;2024-01-15T00:06:24;49.73;;;23.97;;
27921;SDS011;15261;50.356;10.340;2024-01-15T00:08:51;48.70;;;24.33;;
27921;SDS011;15261;50.356;10.340;2024-01-15T00:11:17;49.63;;;25.07;;
27921;SDS011;15261;50.356;10.340;2024-01-15T00:13:42;43.03;;;24.53;;
27921;SDS011;15261;50.356;10.340;2024-01-15T00:16:08;52.10;;;25.33;;
27921;SDS011;15261;50.356;10.340;2024-01-15T00:18:34;40.73;;;21.83;;
27921;SDS011;15261;50.356;10.340;2024-01-15T00:20:59;47.37;;;23.17;;
27921;SDS011;15261;50.356;10.340;2024-01-15T00:23:25;45.07;;;23.83;;
27921;SDS011;15261;50.356;10.340;2024-01-15T00:25:50;45.10;;;24.00;;
27921;SDS011;15261;50.356;10.340;2024-01-15T00:28:16;39.60;;;22.20;;
27921;SDS011;15261;50.356;10.340;2024-01-15T00:30:42;41.17;;;22.23;;
27921;SDS011;15261;50.356;10.340;2024-01-15T00:33:07;46.23;;;23.53;;
27921;SDS011;15261;50.356;10.340;2024-01-15T00:35:33;42.20;;;22.43;;
27921;SDS011;15261;50.356;10.340;2024-01-15T00:38:01;46.47;;;23.03;;
27921;SDS011;15261;50.356;10.340;2024-01-15T00:40:27;41.87;;;20.70;;
27921;SDS011;15261;50.356;10.340;2024-01-15T00:42:53;42.23;;;21.80;;
27921;SDS011;15261;50.356;10.340;2024-01-15T00:45:19;44.17;;;22.30;;
27921;SDS011;15261;50.356;10.340;2024-01-15T00:47:44;41.57;;;21.87;;
27921;SDS011;15261;50.356;10.340;2024-01-15T00:50:10;42.90;;;21.33;;
27921;SDS011;15261;50.356;10.340;2024-01-15T00:52:35;40.30;;;21.70;;
27921;SDS011;15261;50.356;10.340;2024-01-15T00:55:01;44.10;;;22.53;;
27921;SDS011;15261;50.356;10.340;2024-01-15T00:57:26;39.63;;;20.90;;
27921;SDS011;15261;50.356;10.340;2024-01-15T00:59:52;42.57;;;21.33;;
27921;SDS011;15261;50.356;10.340;2024-01-15T01:02:17;36.40;;;20.43;;
27921;SDS011;15261;50.356;10.340;2024-01-15T01:04:43;39.30;;;21.97;;
27921;SDS011;15261;50.356;10.340;2024-01-15T01:07:08;38.50;;;20.47;;
27921;SDS011;15261;50.356;10.340;2024-01-15T01:09:34;38.80;;;21.63;;
27921;SDS011;15261;50.356;10.340;2024-01-15T01:11:59;37.03;;;20.40;;
27921;SDS011;15261;50.356;10.340;2024-01-15T01:14:25;34.93;;;19.00;;
27921;SDS011;15261;50.356;10.340;2024-01-15T01:16:51;39.50;;;21.60;;
27921;SDS011;15261;50.356;10.340;2024-01-15T01:19:16;36.93;;;20.43;;
27921;SDS011;15261;50.356;10.340;2024-01-15T01:21:42;37.13;;;20.50;;
27921;SDS011;15261;50.356;10.340;2024-01-15T01:24:07;39.83;;;20.30;;
27921;SDS011;15261;50.356;10.340;2024-01-15T01:26:33;41.30;;;21.47;;
27921;SDS011;15261;50.356;10.340;2024-01-15T01:28:58;37.40;;;20.03;;
27921;SDS011;15261;50.356;10.340;2024-01-15T01:31:24;35.93;;;19.77;;
27921;SDS011;15261;50.356;10.340;2024-01-15T01:33:50;34.27;;;19.23;;
27921;SDS011;15261;50.356;10.340;2024-01-15T01:36:15;36.17;;;19.07;;
27921;SDS011;15261;50.356;10.340;2024-01-15T01:38:41;31.33;;;18.23;;
27921;SDS011;15261;50.356;10.340;2024-01-15T01:41:06;32.87;;;19.07;;
27921;SDS011;15261;50.356;10.340;2024-01-15T01:43:32;31.60;;;18.23;;
27921;SDS011;15261;50.356;10.340;2024-01-15T01:45:58;31.50;;;17.77;;
27921;SDS011;15261;50.356;10.340;2024-01-15T01:48:26;33.60;;;18.67;;
27921;SDS011;15261;50.356;10.340;2024-01-15T01:50:53;30.90;;;18.07;;
27921;SDS011;15261;50.356;10.340;2024-01-15T01:53:21;33.63;;;18.03;;
27921;SDS011;15261;50.356;10.340;2024-01-15T01:55:48;28.13;;;16.33;;
27921;SDS011;15261;50.356;10.340;2024-01-15T01:58:14;31.30;;;17.43;;
27921;SDS011;15261;50.356;10.340;2024-01-15T02:19:34;35.00;;;18.00;;
27921;SDS011;15261;50.356;10.340;2024-01-15T02:22:00;34.07;;;20.00;;
27921;SDS011;15261;50.356;10.340;2024-01-15T02:24:25;31.50;;;18.80;;
27921;SDS011;15261;50.356;10.340;2024-01-15T02:26:51;34.10;;;18.50;;
27921;SDS011;15261;50.356;10.340;2024-01-15T02:29:17;35.17;;;18.57;;
27921;SDS011;15261;50.356;10.340;2024-01-15T02:31:43;37.63;;;19.60;;
27921;SDS011;15261;50.356;10.340;2024-01-15T02:34:08;33.90;;;18.60;;
27921;SDS011;15261;50.356;10.340;2024-01-15T02:36:34;31.97;;;18.73;;
27921;SDS011;15261;50.356;10.340;2024-01-15T02:38:59;34.40;;;19.43;;
27921;SDS011;15261;50.356;10.340;2024-01-15T02:41:25;38.63;;;19.63;;
27921;SDS011;15261;50.356;10.340;2024-01-15T02:43:50;40.80;;;20.10;;
27921;SDS011;15261;50.356;10.340;2024-01-15T02:46:16;32.47;;;19.23;;
27921;SDS011;15261;50.356;10.340;2024-01-15T02:48:41;31.07;;;17.30;;
27921;SDS011;15261;50.356;10.340;2024-01-15T02:51:07;30.83;;;18.17;;
27921;SDS011;15261;50.356;10.340;2024-01-15T02:53:32;33.60;;;19.07;;
27921;SDS011;15261;50.356;10.340;2024-01-15T02:55:58;30.80;;;18.50;;
27921;SDS011;15261;50.356;10.340;2024-01-15T02:58:24;30.60;;;17.60;;
27921;SDS011;15261;50.356;10.340;2024-01-15T03:00:49;28.67;;;16.83;;
27921;SDS011;15261;50.356;10.340;2024-01-15T03:03:15;30.63;;;17.73;;
27921;SDS011;15261;50.356;10.340;2024-01-15T03:05:40;27.57;;;16.13;;
27921;SDS011;15261;50.356;10.340;2024-01-15T03:08:06;26.70;;;16.27;;
27921;SDS011;15261;50.356;10.340;2024-01-15T03:10:31;27.37;;;15.67;;
27921;SDS011;15261;50.356;10.340;2024-01-15T03:12:57;28.47;;;16.30;;
27921;SDS011;15261;50.356;10.340;2024-01-15T03:15:22;29.27;;;16.53;;
27921;SDS011;15261;50.356;10.340;2024-01-15T03:17:48;27.00;;;15.90;;
27921;SDS011;15261;50.356;10.340;2024-01-15T03:20:13;30.97;;;16.20;;
27921;SDS011;15261;50.356;10.340;2024-01-15T03:22:39;27.47;;;16.03;;
27921;SDS011;15261;50.356;10.340;2024-01-15T03:25:05;27.97;;;16.37;;
27921;SDS011;15261;50.356;10.340;2024-01-15T03:27:31;26.23;;;15.07;;
27921;SDS011;15261;50.356;10.340;2024-01-15T03:29:57;27.33;;;15.93;;
27921;SDS011;15261;50.356;10.340;2024-01-15T03:32:22;28.33;;;16.13;;
27921;SDS011;15261;50.356;10.340;2024-01-15T03:34:48;28.53;;;16.10;;
27921;SDS011;15261;50.356;10.340;2024-01-15T03:37:14;26.73;;;15.37;;
27921;SDS011;15261;50.356;10.340;2024-01-15T03:39:39;25.87;;;15.73;;
27921;SDS011;15261;50.356;10.340;2024-01-15T03:42:06;27.33;;;16.40;;
27921;SDS011;15261;50.356;10.340;2024-01-15T03:44:32;25.80;;;15.83;;
27921;SDS011;15261;50.356;10.340;2024-01-15T03:46:57;26.93;;;16.20;;
27921;SDS011;15261;50.356;10.340;2024-01-15T03:49:23;24.57;;;14.70;;
27921;SDS011;15261;50.356;10.340;2024-01-15T03:54:27;25.27;;;15.33;;
27921;SDS011;15261;50.356;10.340;2024-01-15T03:56:52;27.47;;;17.10;;
27921;SDS011;15261;50.356;10.340;2024-01-15T03:59:18;29.73;;;16.27;;
27921;SDS011;15261;50.356;10.340;2024-01-15T04:01:50;26.17;;;15.77;;
27921;SDS011;15261;50.356;10.340;2024-01-15T04:04:16;27.97;;;16.67;;
27921;SDS011;15261;50.356;10.340;2024-01-15T04:06:42;27.07;;;15.53;;
27921;SDS011;15261;50.356;10.340;2024-01-15T04:09:07;31.37;;;16.33;;
27921;SDS011;15261;50.356;10.340;2024-01-15T04:11:33;27.07;;;15.93;;
27921;SDS011;15261;50.356;10.340;2024-01-15T04:13:58;29.20;;;16.43;;
27921;SDS011;15261;50.356;10.340;2024-01-15T04:16:24;29.43;;;17.40;;
27921;SDS011;15261;50.356;10.340;2024-01-15T04:18:49;31.17;;;18.30;;
27921;SDS011;15261;50.356;10.340;2024-01-15T04:21:16;29.10;;;17.23;;
27921;SDS011;15261;50.356;10.340;2024-01-15T04:23:42;30.47;;;17.60;;
27921;SDS011;15261;50.356;10.340;2024-01-15T04:26:08;35.37;;;21.13;;
27921;SDS011;15261;50.356;10.340;2024-01-15T04:28:34;30.77;;;18.37;;
27921;SDS011;15261;50.356;10.340;2024-01-15T04:30:59;33.27;;;18.60;;
27921;SDS011;15261;50.356;10.340;2024-01-15T04:33:25;32.47;;;18.57;;
27921;SDS011;15261;50.356;10.340;2024-01-15T04:35:50;34.37;;;18.67;;
27921;SDS011;15261;50.356;10.340;2024-01-15T04:38:16;31.80;;;17.73;;
27921;SDS011;15261;50.356;10.340;2024-01-15T04:40:42;32.77;;;18.83;;
27921;SDS011;15261;50.356;10.340;2024-01-15T04:43:10;31.50;;;18.50;;
27921;SDS011;15261;50.356;10.340;2024-01-15T04:45:36;31.77;;;18.60;;
27921;SDS011;15261;50.356;10.340;2024-01-15T04:48:01;33.33;;;19.37;;
27921;SDS011;15261;50.356;10.340;2024-01-15T04:50:28;32.50;;;17.73;;
27921;SDS011;15261;50.356;10.340;2024-01-15T04:52:53;28.50;;;17.50;;
27921;SDS011;15261;50.356;10.340;2024-01-15T04:55:19;29.30;;;16.43;;
27921;SDS011;15261;50.356;10.340;2024-01-15T04:57:44;36.17;;;18.10;;
27921;SDS011;15261;50.356;10.340;2024-01-15T05:00:10;32.87;;;18.53;;
27921;SDS011;15261;50.356;10.340;2024-01-15T05:02:37;30.97;;;18.53;;
27921;SDS011;15261;50.356;10.340;2024-01-15T05:05:02;31.30;;;17.93;;
27921;SDS011;15261;50.356;10.340;2024-01-15T05:07:28;30.83;;;17.73;;
27921;SDS011;15261;50.356;10.340;2024-01-15T05:09:54;26.33;;;15.73;;
27921;SDS011;15261;50.356;10.340;2024-01-15T05:12:19;27.83;;;16.97;;
27921;SDS011;15261;50.356;10.340;2024-01-15T05:14:45;28.47;;;16.10;;
27921;SDS011;15261;50.356;10.340;2024-01-15T05:17:10;27.20;;;16.37;;
27921;SDS011;15261;50.356;10.340;2024-01-15T05:19:36;29.87;;;17.00;;
27921;SDS011;15261;50.356;10.340;2024-01-15T05:22:01;26.63;;;16.30;;
27921;SDS011;15261;50.356;10.340;2024-01-15T05:24:27;30.80;;;16.47;;
27921;SDS011;15261;50.356;10.340;2024-01-15T05:26:52;27.80;;;16.23;;
27921;SDS011;15261;50.356;10.340;2024-01-15T05:29:18;25.73;;;14.80;;
27921;SDS011;15261;50.356;10.340;2024-01-15T05:31:43;26.87;;;16.07;;
27921;SDS011;15261;50.356;10.340;2024-01-15T05:34:09;25.53;;;14.97;;
27921;SDS011;15261;50.356;10.340;2024-01-15T05:36:35;27.63;;;15.63;;
27921;SDS011;15261;50.356;10.340;2024-01-15T05:39:00;30.13;;;16.73;;
27921;SDS011;15261;50.356;10.340;2024-01-15T05:41:26;25.10;;;15.90;;
27921;SDS011;15261;50.356;10.340;2024-01-15T05:43:51;29.87;;;15.80;;
27921;SDS011;15261;50.356;10.340;2024-01-15T05:46:17;25.57;;;15.87;;
27921;SDS011;15261;50.356;10.340;2024-01-15T05:48:43;28.90;;;15.67;;
27921;SDS011;15261;50.356;10.340;2024-01-15T05:51:08;29.17;;;16.43;;
27921;SDS011;15261;50.356;10.340;2024-01-15T05:53:35;27.23;;;16.13;;
27921;SDS011;15261;50.356;10.340;2024-01-15T05:56:00;28.93;;;16.97;;
27921;SDS011;15261;50.356;10.340;2024-01-15T05:58:26;25.77;;;15.33;;
27921;SDS011;15261;50.356;10.340;2024-01-15T06:00:52;24.30;;;15.17;;
27921;SDS011;15261;50.356;10.340;2024-01-15T06:03:17;28.53;;;15.50;;
27921;SDS011;15261;50.356;10.340;2024-01-15T06:05:43;28.17;;;16.40;;
27921;SDS011;15261;50.356;10.340;2024-01-15T06:08:08;31.33;;;16.37;;
27921;SDS011;15261;50.356;10.340;2024-01-15T06:10:34;23.53;;;14.87;;
27921;SDS011;15261;50.356;10.340;2024-01-15T06:13:00;29.10;;;16.00;;
27921;SDS011;15261;50.356;10.340;2024-01-15T06:15:26;24.60;;;15.47;;
27921;SDS011;15261;50.356;10.340;2024-01-15T06:17:51;28.27;;;15.90;;
27921;SDS011;15261;50.356;10.340;2024-01-15T06:20:17;29.20;;;15.67;;
27921;SDS011;15261;50.356;10.340;2024-01-15T06:22:43;23.10;;;14.60;;
27921;SDS011;15261;50.356;10.340;2024-01-15T06:25:08;58.97;;;29.30;;
27921;SDS011;15261;50.356;10.340;2024-01-15T06:27:34;34.70;;;20.47;;
27921;SDS011;15261;50.356;10.340;2024-01-15T06:29:59;29.70;;;16.07;;
27921;SDS011;15261;50.356;10.340;2024-01-15T06:32:25;27.63;;;16.07;;
27921;SDS011;15261;50.356;10.340;2024-01-15T06:34:50;28.63;;;15.90;;
27921;SDS011;15261;50.356;10.340;2024-01-15T06:37:16;24.13;;;14.87;;
27921;SDS011;15261;50.356;10.340;2024-01-15T06:39:43;25.87;;;15.17;;
27921;SDS011;15261;50.356;10.340;2024-01-15T06:42:11;23.00;;;14.23;;
27921;SDS011;15261;50.356;10.340;2024-01-15T06:44:36;21.67;;;13.70;;
27921;SDS011;15261;50.356;10.340;2024-01-15T06:47:02;26.07;;;14.70;;
27921;SDS011;15261;50.356;10.340;2024-01-15T06:49:28;22.40;;;14.00;;
27921;SDS011;15261;50.356;10.340;2024-01-15T06:51:54;23.60;;;14.17;;
27921;SDS011;15261;50.356;10.340;2024-01-15T06:54:20;25.03;;;13.80;;
27921;SDS011;15261;50.356;10.340;2024-01-15T06:56:46;26.67;;;14.90;;
27921;SDS011;15261;50.356;10.340;2024-01-15T06:59:11;25.27;;;14.10;;
27921;SDS011;15261;50.356;10.340;2024-01-15T07:01:37;23.87;;;14.23;;
27921;SDS011;15261;50.356;10.340;2024-01-15T07:04:02;24.07;;;15.23;;
27921;SDS011;15261;50.356;10.340;2024-01-15T07:06:28;27.70;;;20.40;;
27921;SDS011;15261;50.356;10.340;2024-01-15T07:08:55;25.20;;;15.30;;
27921;SDS011;15261;50.356;10.340;2024-01-15T07:11:21;23.97;;;16.80;;
27921;SDS011;15261;50.356;10.340;2024-01-15T07:13:47;72.60;;;45.87;;
27921;SDS011;15261;50.356;10.340;2024-01-15T07:16:12;55.27;;;30.10;;
27921;SDS011;15261;50.356;10.340;2024-01-15T07:18:38;31.80;;;18.33;;
27921;SDS011;15261;50.356;10.340;2024-01-15T07:21:03;27.50;;;16.70;;
27921;SDS011;15261;50.356;10.340;2024-01-15T07:23:30;27.63;;;16.37;;
27921;SDS011;15261;50.356;10.340;2024-01-15T07:25:57;26.87;;;17.13;;
27921;SDS011;15261;50.356;10.340;2024-01-15T07:28:23;27.17;;;16.30;;
27921;SDS011;15261;50.356;10.340;2024-01-15T07:30:49;27.87;;;17.13;;
27921;SDS011;15261;50.356;10.340;2024-01-15T07:33:15;30.43;;;17.87;;
27921;SDS011;15261;50.356;10.340;2024-01-15T07:35:40;30.73;;;18.17;;
27921;SDS011;15261;50.356;10.340;2024-01-15T07:38:06;29.90;;;16.73;;
27921;SDS011;15261;50.356;10.340;2024-01-15T07:40:32;25.87;;;15.67;;
27921;SDS011;15261;50.356;10.340;2024-01-15T07:42:58;30.53;;;18.93;;
27921;SDS011;15261;50.356;10.340;2024-01-15T07:45:24;31.23;;;17.17;;
27921;SDS011;15261;50.356;10.340;2024-01-15T07:47:53;29.63;;;19.63;;
27921;SDS011;15261;50.356;10.340;2024-01-15T07:50:19;27.73;;;17.90;;
27921;SDS011;15261;50.356;10.340;2024-01-15T07:52:44;27.77;;;15.83;;
27921;SDS011;15261;50.356;10.340;2024-01-15T07:55:10;30.80;;;17.63;;
27921;SDS011;15261;50.356;10.340;2024-01-15T07:57:36;32.77;;;18.93;;
27921;SDS011;15261;50.356;10.340;2024-01-15T08:00:02;28.87;;;17.63;;
27921;SDS011;15261;50.356;10.340;2024-01-15T08:02:31;32.47;;;20.80;;
27921;SDS011;15261;50.356;10.340;2024-01-15T08:04:57;39.47;;;26.53;;
27921;SDS011;15261;50.356;10.340;2024-01-15T08:07:24;27.53;;;17.03;;
27921;SDS011;15261;50.356;10.340;2024-01-15T08:09:50;27.03;;;16.77;;
27921;SDS011;15261;50.356;10.340;2024-01-15T08:12:26;31.20;;;18.07;;
27921;SDS011;15261;50.356;10.340;2024-01-15T08:14:58;36.93;;;23.63;;
27921;SDS011;15261;50.356;10.340;2024-01-15T08:17:24;43.40;;;28.50;;
27921;SDS011;15261;50.356;10.340;2024-01-15T08:19:53;31.33;;;19.37;;
27921;SDS011;15261;50.356;10.340;2024-01-15T08:22:19;38.43;;;25.43;;
27921;SDS011;15261;50.356;10.340;2024-01-15T08:24:45;40.00;;;25.40;;
27921;SDS011;15261;50.356;10.340;2024-01-15T08:27:11;31.60;;;18.17;;
27921;SDS011;15261;50.356;10.340;2024-01-15T08:29:36;25.40;;;15.07;;
27921;SDS011;15261;50.356;10.340;2024-01-15T08:32:02;26.47;;;16.13;;
27921;SDS011;15261;50.356;10.340;2024-01-15T08:34:28;27.87;;;17.77;;
27921;SDS011;15261;50.356;10.340;2024-01-15T08:36:57;31.47;;;18.00;;
27921;SDS011;15261;50.356;10.340;2024-01-15T08:42:04;26.53;;;16.53;;
27921;SDS011;15261;50.356;10.340;2024-01-15T08:44:30;28.43;;;17.63;;
27921;SDS011;15261;50.356;10.340;2024-01-15T08:46:55;22.87;;;15.00;;
27921;SDS011;15261;50.356;10.340;2024-01-15T08:49:21;23.00;;;15.40;;
27921;SDS011;15261;50.356;10.340;2024-01-15T08:51:47;25.47;;;14.37;;
27921;SDS011;15261;50.356;10.340;2024-01-15T08:54:12;20.63;;;14.07;;
27921;SDS011;15261;50.356;10.340;2024-01-15T08:56:38;21.20;;;13.50;;
27921;SDS011;15261;50.356;10.340;2024-01-15T08:59:05;23.03;;;13.47;;
27921;SDS011;15261;50.356;10.340;2024-01-15T09:01:30;22.13;;;13.53;;
27921;SDS011;15261;50.356;10.340;2024-01-15T09:03:56;24.40;;;13.43;;
27921;SDS011;15261;50.356;10.340;2024-01-15T09:06:21;23.77;;;13.97;;
27921;SDS011;15261;50.356;10.340;2024-01-15T09:08:47;47.00;;;26.63;;
27921;SDS011;15261;50.356;10.340;2024-01-15T09:11:12;27.80;;;16.57;;
27921;SDS011;15261;50.356;10.340;2024-01-15T09:13:38;25.60;;;16.20;;
27921;SDS011;15261;50.356;10.340;2024-01-15T09:16:04;24.07;;;15.70;;
27921;SDS011;15261;50.356;10.340;2024-01-15T09:18:30;27.63;;;17.80;;
27921;SDS011;15261;50.356;10.340;2024-01-15T09:20:56;25.07;;;15.33;;
27921;SDS011;15261;50.356;10.340;2024-01-15T09:23:22;27.83;;;18.63;;
27921;SDS011;15261;50.356;10.340;2024-01-15T09:25:47;24.70;;;14.50;;
27921;SDS011;15261;50.356;10.340;2024-01-15T09:28:13;23.87;;;15.37;;
27921;SDS011;15261;50.356;10.340;2024-01-15T09:30:39;23.50;;;14.70;;
27921;SDS011;15261;50.356;10.340;2024-01-15T09:33:04;20.63;;;12.90;;
27921;SDS011;15261;50.356;10.340;2024-01-15T09:35:30;21.40;;;13.27;;
27921;SDS011;15261;50.356;10.340;2024-01-15T09:37:56;21.83;;;13.30;;
27921;SDS011;15261;50.356;10.340;2024-01-15T09:40:22;19.93;;;13.40;;
27921;SDS011;15261;50.356;10.340;2024-01-15T09:42:48;24.03;;;13.57;;
27921;SDS011;15261;50.356;10.340;2024-01-15T09:47:50;22.60;;;12.47;;
27921;SDS011;15261;50.356;10.340;2024-01-15T09:50:16;20.43;;;13.97;;
27921;SDS011;15261;50.356;10.340;2024-01-15T09:52:42;21.20;;;13.43;;
27921;SDS011;15261;50.356;10.340;2024-01-15T09:55:09;22.20;;;13.47;;
27921;SDS011;15261;50.356;10.340;2024-01-15T09:57:36;21.77;;;13.20;;
27921;SDS011;15261;50.356;10.340;2024-01-15T10:00:04;22.87;;;12.60;;
27921;SDS011;15261;50.356;10.340;2024-01-15T10:02:32;18.17;;;12.20;;
27921;SDS011;15261;50.356;10.340;2024-01-15T10:04:58;21.40;;;12.33;;
27921;SDS011;15261;50.356;10.340;2024-01-15T10:07:24;17.57;;;12.40;;
27921;SDS011;15261;50.356;10.340;2024-01-15T10:09:51;18.93;;;12.67;;
27921;SDS011;15261;50.356;10.340;2024-01-15T10:12:16;21.67;;;12.63;;
27921;SDS011;15261;50.356;10.340;2024-01-15T10:14:42;18.30;;;11.77;;
27921;SDS011;15261;50.356;10.340;2024-01-15T10:17:14;20.50;;;11.33;;
27921;SDS011;15261;50.356;10.340;2024-01-15T10:19:40;17.97;;;11.50;;
27921;SDS011;15261;50.356;10.340;2024-01-15T10:22:08;23.80;;;12.93;;
27921;SDS011;15261;50.356;10.340;2024-01-15T10:24:37;19.37;;;12.13;;
27921;SDS011;15261;50.356;10.340;2024-01-15T10:27:05;19.93;;;13.20;;
27921;SDS011;15261;50.356;10.340;2024-01-15T10:29:32;18.33;;;12.03;;
27921;SDS011;15261;50.356;10.340;2024-01-15T10:31:59;20.03;;;12.40;;
27921;SDS011;15261;50.356;10.340;2024-01-15T10:34:30;19.23;;;12.47;;
27921;SDS011;15261;50.356;10.340;2024-01-15T10:39:37;19.87;;;13.03;;
27921;SDS011;15261;50.356;10.340;2024-01-15T10:42:04;17.50;;;12.40;;
27921;SDS011;15261;50.356;10.340;2024-01-15T10:44:30;23.17;;;13.87;;
27921;SDS011;15261;50.356;10.340;2024-01-15T10:46:55;19.87;;;12.73;;
27921;SDS011;15261;50.356;10.340;2024-01-15T10:49:22;22.80;;;13.63;;
27921;SDS011;15261;50.356;10.340;2024-01-15T10:51:51;20.47;;;12.93;;
27921;SDS011;15261;50.356;10.340;2024-01-15T10:54:18;21.13;;;13.87;;
27921;SDS011;15261;50.356;10.340;2024-01-15T10:56:45;21.57;;;12.90;;
27921;SDS011;15261;50.356;10.340;2024-01-15T10:59:12;21.03;;;12.70;;
27921;SDS011;15261;50.356;10.340;2024-01-15T11:01:38;21.03;;;12.70;;
27921;SDS011;15261;50.356;10.340;2024-01-15T11:04:04;20.60;;;12.47;;
27921;SDS011;15261;50.356;10.340;2024-01-15T11:06:40;18.37;;;12.33;;
27921;SDS011;15261;50.356;10.340;2024-01-15T11:09:12;20.07;;;12.83;;
27921;SDS011;15261;50.356;10.340;2024-01-15T11:11:40;16.47;;;11.80;;
27921;SDS011;15261;50.356;10.340;2024-01-15T11:14:10;19.93;;;12.60;;
27921;SDS011;15261;50.356;10.340;2024-01-15T11:16:56;19.87;;;12.87;;
27921;SDS011;15261;50.356;10.340;2024-01-15T11:19:27;19.83;;;12.17;;
27921;SDS011;15261;50.356;10.340;2024-01-15T11:25:14;17.17;;;11.43;;
27921;SDS011;15261;50.356;10.340;2024-01-15T11:36:14;17.47;;;12.00;;
27921;SDS011;15261;50.356;10.340;2024-01-15T11:38:40;19.70;;;12.00;;
27921;SDS011;15261;50.356;10.340;2024-01-15T11:41:15;19.20;;;12.47;;
27921;SDS011;15261;50.356;10.340;2024-01-15T11:43:41;17.37;;;11.57;;
27921;SDS011;15261;50.356;10.340;2024-01-15T11:58:10;17.60;;;11.37;;
27921;SDS011;15261;50.356;10.340;2024-01-15T12:00:48;19.10;;;13.00;;
27921;SDS011;15261;50.356;10.340;2024-01-15T12:06:09;18.80;;;12.90;;
27921;SDS011;15261;50.356;10.340;2024-01-15T12:11:32;20.63;;;13.37;;
27921;SDS011;15261;50.356;10.340;2024-01-15T12:14:02;19.70;;;11.83;;
27921;SDS011;15261;50.356;10.340;2024-01-15T12:16:28;21.60;;;12.33;;
27921;SDS011;15261;50.356;10.340;2024-01-15T12:18:53;18.87;;;12.23;;
27921;SDS011;15261;50.356;10.340;2024-01-15T12:21:19;20.60;;;12.50;;
27921;SDS011;15261;50.356;10.340;2024-01-15T12:23:48;17.40;;;12.10;;
27921;SDS011;15261;50.356;10.340;2024-01-15T12:29:12;18.77;;;11.80;;
27921;SDS011;15261;50.356;10.340;2024-01-15T12:31:48;17.23;;;11.43;;
27921;SDS011;15261;50.356;10.340;2024-01-15T12:34:13;17.77;;;11.60;;
27921;SDS011;15261;50.356;10.340;2024-01-15T12:39:28;17.90;;;11.43;;
27921;SDS011;15261;50.356;10.340;2024-01-15T12:41:54;16.07;;;10.33;;
27921;SDS011;15261;50.356;10.340;2024-01-15T12:47:13;18.10;;;10.73;;
27921;SDS011;15261;50.356;10.340;2024-01-15T12:49:41;14.67;;;10.67;;
27921;SDS011;15261;50.356;10.340;2024-01-15T12:52:10;21.87;;;16.17;;
27921;SDS011;15261;50.356;10.340;2024-01-15T12:54:36;22.70;;;13.97;;
27921;SDS011;15261;50.356;10.340;2024-01-15T12:57:01;17.23;;;10.77;;
27921;SDS011;15261;50.356;10.340;2024-01-15T12:59:27;15.03;;;9.47;;
27921;SDS011;15261;50.356;10.340;2024-01-15T13:01:53;13.83;;;10.40;;
27921;SDS011;15261;50.356;10.340;2024-01-15T13:04:23;14.43;;;9.40;;
27921;SDS011;15261;50.356;10.340;2024-01-15T13:06:49;14.57;;;9.73;;
27921;SDS011;15261;50.356;10.340;2024-01-15T13:09:16;16.77;;;9.27;;
27921;SDS011;15261;50.356;10.340;2024-01-15T13:11:43;13.57;;;9.00;;
27921;SDS011;15261;50.356;10.340;2024-01-15T13:14:12;17.50;;;9.80;;
27921;SDS011;15261;50.356;10.340;2024-01-15T13:16:40;13.60;;;9.50;;
27921;SDS011;15261;50.356;10.340;2024-01-15T13:19:09;14.57;;;9.57;;
27921;SDS011;15261;50.356;10.340;2024-01-15T13:21:36;15.13;;;9.10;;
27921;SDS011;15261;50.356;10.340;2024-01-15T13:24:02;17.27;;;11.83;;
27921;SDS011;15261;50.356;10.340;2024-01-15T13:26:30;13.40;;;8.93;;
27921;SDS011;15261;50.356;10.340;2024-01-15T13:28:57;13.73;;;9.03;;
27921;SDS011;15261;50.356;10.340;2024-01-15T13:31:24;13.60;;;8.70;;
27921;SDS011;15261;50.356;10.340;2024-01-15T13:33:50;19.60;;;14.60;;
27921;SDS011;15261;50.356;10.340;2024-01-15T13:36:15;13.43;;;9.33;;
27921;SDS011;15261;50.356;10.340;2024-01-15T13:38:42;13.67;;;9.63;;
27921;SDS011;15261;50.356;10.340;2024-01-15T13:46:36;24.40;;;21.00;;
27921;SDS011;15261;50.356;10.340;2024-01-15T13:49:03;65.00;;;58.40;;
27921;SDS011;15261;50.356;10.340;2024-01-15T13:51:30;30.83;;;27.13;;
27921;SDS011;15261;50.356;10.340;2024-01-15T13:53:56;19.90;;;15.53;;
27921;SDS011;15261;50.356;10.340;2024-01-15T13:56:24;19.80;;;14.20;;
27921;SDS011;15261;50.356;10.340;2024-01-15T13:59:01;21.67;;;11.47;;
27921;SDS011;15261;50.356;10.340;2024-01-15T14:04:17;15.53;;;11.50;;
27921;SDS011;15261;50.356;10.340;2024-01-15T14:06:53;18.00;;;10.83;;
27921;SDS011;15261;50.356;10.340;2024-01-15T14:09:19;17.07;;;12.20;;
27921;SDS011;15261;50.356;10.340;2024-01-15T14:11:46;17.70;;;11.80;;
27921;SDS011;15261;50.356;10.340;2024-01-15T14:14:12;15.90;;;12.03;;
27921;SDS011;15261;50.356;10.340;2024-01-15T14:16:38;17.23;;;13.47;;
27921;SDS011;15261;50.356;10.340;2024-01-15T14:19:04;18.00;;;13.03;;
27921;SDS011;15261;50.356;10.340;2024-01-15T14:21:31;17.77;;;11.80;;
27921;SDS011;15261;50.356;10.340;2024-01-15T14:23:57;17.00;;;12.07;;
27921;SDS011;15261;50.356;10.340;2024-01-15T14:26:22;18.73;;;12.27;;
27921;SDS011;15261;50.356;10.340;2024-01-15T14:28:48;13.83;;;10.13;;
27921;SDS011;15261;50.356;10.340;2024-01-15T14:31:14;14.63;;;10.63;;
27921;SDS011;15261;50.356;10.340;2024-01-15T14:33:39;15.33;;;11.07;;
27921;SDS011;15261;50.356;10.340;2024-01-15T14:36:05;13.50;;;10.33;;
27921;SDS011;15261;50.356;10.340;2024-01-15T14:38:31;13.33;;;10.03;;
27921;SDS011;15261;50.356;10.340;2024-01-15T14:40:56;13.77;;;10.27;;
27921;SDS011;15261;50.356;10.340;2024-01-15T14:43:22;13.43;;;9.53;;
27921;SDS011;15261;50.356;10.340;2024-01-15T14:45:48;13.93;;;10.03;;
27921;SDS011;15261;50.356;10.340;2024-01-15T14:48:13;13.73;;;9.87;;
27921;SDS011;15261;50.356;10.340;2024-01-15T14:50:39;14.60;;;9.97;;
27921;SDS011;15261;50.356;10.340;2024-01-15T14:53:05;13.47;;;10.10;;
27921;SDS011;15261;50.356;10.340;2024-01-15T14:55:31;14.80;;;9.50;;
27921;SDS011;15261;50.356;10.340;2024-01-15T14:58:00;15.10;;;9.30;;
27921;SDS011;15261;50.356;10.340;2024-01-15T15:00:26;13.23;;;9.50;;
27921;SDS011;15261;50.356;10.340;2024-01-15T15:02:52;12.30;;;8.80;;
27921;SDS011;15261;50.356;10.340;2024-01-15T15:08:34;14.77;;;8.60;;
27921;SDS011;15261;50.356;10.340;2024-01-15T15:11:00;10.27;;;8.00;;
27921;SDS011;15261;50.356;10.340;2024-01-15T15:13:26;15.33;;;7.70;;
27921;SDS011;15261;50.356;10.340;2024-01-15T15:15:52;11.40;;;8.10;;
27921;SDS011;15261;50.356;10.340;2024-01-15T15:18:21;10.53;;;7.70;;
27921;SDS011;15261;50.356;10.340;2024-01-15T15:20:47;9.50;;;6.57;;
27921;SDS011;15261;50.356;10.340;2024-01-15T15:23:14;8.23;;;6.60;;
27921;SDS011;15261;50.356;10.340;2024-01-15T15:25:41;8.03;;;6.20;;